sensor_id;sensor_type;location;lat;lon;timestamp;pressure;altitude;pressure_sealevel;temperature;humidity
68994;BME280;56054;50.968;5.816;2022-12-04T00:00:32;100824.34;;;1.50;96.64
68994;BME280;56054;50.968;5.816;2022-12-04T00:03:39;100823.28;;;1.48;96.62
68994;BME280;56054;50.968;5.816;2022-12-04T00:06:46;100831.41;;;1.44;96.74
68994;BME280;56054;50.968;5.816;2022-12-04T00:09:53;100822.53;;;1.49;96.87
68994;BME280;56054;50.968;5.816;2022-12-04T00:13:00;100816.78;;;1.43;97.01
68994;BME280;56054;50.968;5.816;2022-12-04T00:16:11;100821.16;;;1.44;96.91
68994;BME280;56054;50.968;5.816;2022-12-04T00:19:18;100820.59;;;1.55;96.51
68994;BME280;56054;50.968;5.816;2022-12-04T00:22:25;100815.75;;;1.58;96.57
68994;BME280;56054;50.968;5.816;2022-12-04T00:25:32;100818.59;;;1.44;97.05
68994;BME280;56054;50.968;5.816;2022-12-04T00:28:40;100824.34;;;1.50;96.85
68994;BME280;56054;50.968;5.816;2022-12-04T00:31:52;100819.66;;;1.46;96.81
68994;BME280;56054;50.968;5.816;2022-12-04T00:34:59;100821.91;;;1.43;96.90
68994;BME280;56054;50.968;5.816;2022-12-04T00:38:06;100820.72;;;1.48;97.05
68994;BME280;56054;50.968;5.816;2022-12-04T00:41:16;100810.78;;;1.42;96.68
68994;BME280;56054;50.968;5.816;2022-12-04T00:44:23;100815.31;;;1.45;97.03
68994;BME280;56054;50.968;5.816;2022-12-04T00:47:30;100806.72;;;1.53;96.97
68994;BME280;56054;50.968;5.816;2022-12-04T00:50:37;100805.06;;;1.45;96.76
68994;BME280;56054;50.968;5.816;2022-12-04T00:53:45;100797.22;;;1.43;97.26
68994;BME280;56054;50.968;5.816;2022-12-04T00:56:57;100808.97;;;1.50;97.03
68994;BME280;56054;50.968;5.816;2022-12-04T01:00:06;100806.13;;;1.47;97.04
68994;BME280;56054;50.968;5.816;2022-12-04T01:03:13;100806.13;;;1.47;97.33
68994;BME280;56054;50.968;5.816;2022-12-04T01:06:23;100803.22;;;1.44;97.46
68994;BME280;56054;50.968;5.816;2022-12-04T01:09:31;100810.63;;;1.49;97.33
68994;BME280;56054;50.968;5.816;2022-12-04T01:12:38;100801.13;;;1.48;97.04
68994;BME280;56054;50.968;5.816;2022-12-04T01:15:45;100802.19;;;1.50;97.47
68994;BME280;56054;50.968;5.816;2022-12-04T01:18:52;100811.38;;;1.48;97.55
68994;BME280;56054;50.968;5.816;2022-12-04T01:21:59;100806.84;;;1.46;97.20
68994;BME280;56054;50.968;5.816;2022-12-04T01:25:07;100807.47;;;1.52;97.17
68994;BME280;56054;50.968;5.816;2022-12-04T01:28:17;100801.00;;;1.47;97.49
68994;BME280;56054;50.968;5.816;2022-12-04T01:31:24;100808.06;;;1.49;97.28
68994;BME280;56054;50.968;5.816;2022-12-04T01:34:36;100799.63;;;1.42;97.73
68994;BME280;56054;50.968;5.816;2022-12-04T01:37:43;100799.34;;;1.47;98.02
68994;BME280;56054;50.968;5.816;2022-12-04T01:40:50;100797.66;;;1.48;97.33
68994;BME280;56054;50.968;5.816;2022-12-04T01:44:09;100797.66;;;1.48;97.38
68994;BME280;56054;50.968;5.816;2022-12-04T01:47:16;100803.09;;;1.42;97.48
68994;BME280;56054;50.968;5.816;2022-12-04T01:50:23;100800.84;;;1.45;97.36
68994;BME280;56054;50.968;5.816;2022-12-04T01:53:31;100799.78;;;1.43;97.23
68994;BME280;56054;50.968;5.816;2022-12-04T01:56:51;100791.19;;;1.43;97.69
68994;BME280;56054;50.968;5.816;2022-12-04T02:00:09;100796.19;;;1.50;97.32
68994;BME280;56054;50.968;5.816;2022-12-04T02:03:42;100791.78;;;1.40;97.58
68994;BME280;56054;50.968;5.816;2022-12-04T02:06:49;100791.34;;;1.44;97.86
68994;BME280;56054;50.968;5.816;2022-12-04T02:09:56;100787.88;;;1.44;97.71
68994;BME280;56054;50.968;5.816;2022-12-04T02:13:25;100795.09;;;1.48;97.95
68994;BME280;56054;50.968;5.816;2022-12-04T02:20:22;100790.00;;;1.48;97.76
68994;BME280;56054;50.968;5.816;2022-12-04T02:27:22;100788.34;;;1.40;97.76
68994;BME280;56054;50.968;5.816;2022-12-04T02:30:39;100783.94;;;1.39;98.21
68994;BME280;56054;50.968;5.816;2022-12-04T02:37:11;100795.88;;;1.47;98.06
68994;BME280;56054;50.968;5.816;2022-12-04T02:40:24;100787.44;;;1.39;97.99
68994;BME280;56054;50.968;5.816;2022-12-04T02:43:38;100790.00;;;1.39;98.13
68994;BME280;56054;50.968;5.816;2022-12-04T02:46:47;100791.50;;;1.37;98.61
68994;BME280;56054;50.968;5.816;2022-12-04T02:53:11;100789.81;;;1.38;98.73
68994;BME280;56054;50.968;5.816;2022-12-04T02:56:22;100789.81;;;1.38;98.69
68994;BME280;56054;50.968;5.816;2022-12-04T02:59:56;100794.47;;;1.33;98.76
68994;BME280;56054;50.968;5.816;2022-12-04T03:03:12;100779.16;;;1.42;98.13
68994;BME280;56054;50.968;5.816;2022-12-04T03:06:23;100796.91;;;1.40;98.30
68994;BME280;56054;50.968;5.816;2022-12-04T03:09:44;100791.97;;;1.42;98.72
68994;BME280;56054;50.968;5.816;2022-12-04T03:16:15;100797.22;;;1.35;98.47
68994;BME280;56054;50.968;5.816;2022-12-04T03:19:28;100796.63;;;1.37;99.02
68994;BME280;56054;50.968;5.816;2022-12-04T03:22:41;100799.31;;;1.39;98.95
68994;BME280;56054;50.968;5.816;2022-12-04T03:26:02;100796.75;;;1.39;98.22
68994;BME280;56054;50.968;5.816;2022-12-04T03:29:22;100794.19;;;1.39;98.21
68994;BME280;56054;50.968;5.816;2022-12-04T03:32:51;100793.88;;;1.36;98.63
68994;BME280;56054;50.968;5.816;2022-12-04T03:36:13;100793.88;;;1.36;98.42
68994;BME280;56054;50.968;5.816;2022-12-04T03:39:29;100789.97;;;1.31;98.87
68994;BME280;56054;50.968;5.816;2022-12-04T03:42:55;100789.97;;;1.31;98.78
68994;BME280;56054;50.968;5.816;2022-12-04T03:46:10;100797.66;;;1.31;99.00
68994;BME280;56054;50.968;5.816;2022-12-04T03:49:45;100805.31;;;1.31;99.06
68994;BME280;56054;50.968;5.816;2022-12-04T03:56:17;100795.25;;;1.32;98.80
68994;BME280;56054;50.968;5.816;2022-12-04T03:59:35;100795.13;;;1.39;98.34
68994;BME280;56054;50.968;5.816;2022-12-04T04:02:57;100788.31;;;1.31;98.12
68994;BME280;56054;50.968;5.816;2022-12-04T04:06:36;100788.16;;;1.30;98.49
68994;BME280;56054;50.968;5.816;2022-12-04T04:09:46;100782.41;;;1.23;98.79
68994;BME280;56054;50.968;5.816;2022-12-04T04:12:58;100779.88;;;1.32;98.51
68994;BME280;56054;50.968;5.816;2022-12-04T04:16:06;100793.56;;;1.24;99.06
68994;BME280;56054;50.968;5.816;2022-12-04T04:19:17;100779.13;;;1.24;98.99
68994;BME280;56054;50.968;5.816;2022-12-04T04:22:26;100783.66;;;1.27;98.88
68994;BME280;56054;50.968;5.816;2022-12-04T04:25:35;100791.63;;;1.30;98.60
68994;BME280;56054;50.968;5.816;2022-12-04T04:28:45;100796.13;;;1.24;98.59
68994;BME280;56054;50.968;5.816;2022-12-04T04:32:02;100787.84;;;1.26;99.32
68994;BME280;56054;50.968;5.816;2022-12-04T04:42:25;100780.03;;;1.25;99.38
68994;BME280;56054;50.968;5.816;2022-12-04T04:45:47;100779.84;;;1.23;99.18
68994;BME280;56054;50.968;5.816;2022-12-04T04:49:00;100778.94;;;1.14;99.14
68994;BME280;56054;50.968;5.816;2022-12-04T04:52:17;100782.41;;;1.23;99.08
68994;BME280;56054;50.968;5.816;2022-12-04T04:55:27;100773.06;;;1.24;98.92
68994;BME280;56054;50.968;5.816;2022-12-04T04:58:35;100773.97;;;1.16;98.84
68994;BME280;56054;50.968;5.816;2022-12-04T05:01:44;100783.63;;;1.18;99.27
68994;BME280;56054;50.968;5.816;2022-12-04T05:04:51;100776.38;;;1.14;99.58
68994;BME280;56054;50.968;5.816;2022-12-04T05:07:58;100771.28;;;1.23;99.15
68994;BME280;56054;50.968;5.816;2022-12-04T05:11:10;100774.88;;;1.16;99.12
68994;BME280;56054;50.968;5.816;2022-12-04T05:14:18;100769.03;;;1.17;99.46
68994;BME280;56054;50.968;5.816;2022-12-04T05:17:25;100763.13;;;1.18;99.05
68994;BME280;56054;50.968;5.816;2022-12-04T05:20:32;100750.34;;;1.18;99.06
68994;BME280;56054;50.968;5.816;2022-12-04T05:23:39;100764.81;;;1.18;99.43
68994;BME280;56054;50.968;5.816;2022-12-04T05:26:47;100757.41;;;1.21;99.33
68994;BME280;56054;50.968;5.816;2022-12-04T05:29:56;100758.44;;;1.14;99.48
68994;BME280;56054;50.968;5.816;2022-12-04T05:33:04;100762.84;;;1.15;99.09
68994;BME280;56054;50.968;5.816;2022-12-04T05:36:16;100753.81;;;1.19;99.31
68994;BME280;56054;50.968;5.816;2022-12-04T05:39:23;100752.28;;;1.12;99.31
68994;BME280;56054;50.968;5.816;2022-12-04T05:42:56;100756.66;;;1.13;99.41
68994;BME280;56054;50.968;5.816;2022-12-04T05:46:05;100750.66;;;1.13;99.58
68994;BME280;56054;50.968;5.816;2022-12-04T05:49:12;100764.63;;;1.08;99.35
68994;BME280;56054;50.968;5.816;2022-12-04T05:52:27;100755.16;;;1.15;99.66
68994;BME280;56054;50.968;5.816;2022-12-04T05:55:34;100762.50;;;1.12;99.42
68994;BME280;56054;50.968;5.816;2022-12-04T05:58:53;100759.94;;;1.12;99.61
68994;BME280;56054;50.968;5.816;2022-12-04T06:02:00;100764.63;;;1.08;99.40
68994;BME280;56054;50.968;5.816;2022-12-04T06:05:07;100759.22;;;1.13;99.72
68994;BME280;56054;50.968;5.816;2022-12-04T06:08:18;100752.88;;;1.10;99.81
68994;BME280;56054;50.968;5.816;2022-12-04T06:11:31;100767.31;;;1.09;99.20
68994;BME280;56054;50.968;5.816;2022-12-04T06:14:38;100760.72;;;1.11;99.46
68994;BME280;56054;50.968;5.816;2022-12-04T06:17:47;100765.22;;;1.14;99.23
68994;BME280;56054;50.968;5.816;2022-12-04T06:20:57;100756.50;;;1.12;99.62
68994;BME280;56054;50.968;5.816;2022-12-04T06:24:04;100761.94;;;1.15;99.78
68994;BME280;56054;50.968;5.816;2022-12-04T06:27:17;100779.81;;;1.06;99.73
68994;BME280;56054;50.968;5.816;2022-12-04T06:30:24;100774.88;;;1.08;99.92
68994;BME280;56054;50.968;5.816;2022-12-04T06:33:32;100773.94;;;1.07;99.94
68994;BME280;56054;50.968;5.816;2022-12-04T06:36:39;100775.47;;;1.05;99.72
68994;BME280;56054;50.968;5.816;2022-12-04T06:40:12;100787.50;;;1.06;99.74
68994;BME280;56054;50.968;5.816;2022-12-04T06:43:23;100775.75;;;1.08;99.48
68994;BME280;56054;50.968;5.816;2022-12-04T06:46:33;100780.41;;;1.12;99.81
68994;BME280;56054;50.968;5.816;2022-12-04T06:49:42;100791.00;;;1.15;99.58
68994;BME280;56054;50.968;5.816;2022-12-04T06:52:57;100800.59;;;1.09;99.52
68994;BME280;56054;50.968;5.816;2022-12-04T06:56:08;100795.94;;;1.05;99.45
68994;BME280;56054;50.968;5.816;2022-12-04T06:59:15;100791.25;;;1.10;99.87
68994;BME280;56054;50.968;5.816;2022-12-04T07:02:22;100792.19;;;1.10;100.00
68994;BME280;56054;50.968;5.816;2022-12-04T07:05:29;100801.94;;;1.05;99.42
68994;BME280;56054;50.968;5.816;2022-12-04T07:08:50;100808.97;;;0.91;99.79
68994;BME280;56054;50.968;5.816;2022-12-04T07:11:57;100800.06;;;0.87;100.00
68994;BME280;56054;50.968;5.816;2022-12-04T07:15:05;100802.50;;;0.94;100.00
68994;BME280;56054;50.968;5.816;2022-12-04T07:18:12;100796.31;;;0.92;100.00
68994;BME280;56054;50.968;5.816;2022-12-04T07:21:21;100806.44;;;0.99;100.00
68994;BME280;56054;50.968;5.816;2022-12-04T07:24:29;100806.25;;;0.89;99.95
68994;BME280;56054;50.968;5.816;2022-12-04T07:27:37;100807.91;;;0.97;100.00
68994;BME280;56054;50.968;5.816;2022-12-04T07:30:44;100811.13;;;1.03;100.00
68994;BME280;56054;50.968;5.816;2022-12-04T07:33:52;100808.97;;;0.91;100.00
68994;BME280;56054;50.968;5.816;2022-12-04T07:36:59;100800.72;;;0.93;100.00
68994;BME280;56054;50.968;5.816;2022-12-04T07:40:07;100803.25;;;0.93;100.00
68994;BME280;56054;50.968;5.816;2022-12-04T07:43:14;100805.22;;;0.96;100.00
68994;BME280;56054;50.968;5.816;2022-12-04T07:46:25;100810.34;;;0.96;100.00
68994;BME280;56054;50.968;5.816;2022-12-04T07:49:32;100823.25;;;0.89;100.00
68994;BME280;56054;50.968;5.816;2022-12-04T07:52:39;100816.06;;;0.93;100.00
68994;BME280;56054;50.968;5.816;2022-12-04T07:55:52;100818.03;;;0.96;100.00
68994;BME280;56054;50.968;5.816;2022-12-04T07:59:03;100827.63;;;0.90;100.00
68994;BME280;56054;50.968;5.816;2022-12-04T08:02:11;100821.75;;;0.91;100.00
68994;BME280;56054;50.968;5.816;2022-12-04T08:05:19;100822.66;;;0.91;100.00
68994;BME280;56054;50.968;5.816;2022-12-04T08:08:27;100821.75;;;0.91;100.00
68994;BME280;56054;50.968;5.816;2022-12-04T08:11:34;100818.75;;;0.95;100.00
68994;BME280;56054;50.968;5.816;2022-12-04T08:14:42;100813.63;;;0.95;100.00
68994;BME280;56054;50.968;5.816;2022-12-04T08:17:49;100829.28;;;0.89;100.00
68994;BME280;56054;50.968;5.816;2022-12-04T08:21:11;100825.94;;;0.90;100.00
68994;BME280;56054;50.968;5.816;2022-12-04T08:24:18;100823.84;;;0.86;100.00
68994;BME280;56054;50.968;5.816;2022-12-04T08:27:25;100819.50;;;0.94;100.00
68994;BME280;56054;50.968;5.816;2022-12-04T08:31:06;100820.59;;;0.96;100.00
68994;BME280;56054;50.968;5.816;2022-12-04T08:34:13;100819.09;;;0.98;100.00
68994;BME280;56054;50.968;5.816;2022-12-04T08:37:20;100821.22;;;1.11;100.00
68994;BME280;56054;50.968;5.816;2022-12-04T08:40:28;100818.19;;;1.06;100.00
68994;BME280;56054;50.968;5.816;2022-12-04T08:44:01;100811.44;;;1.06;100.00
68994;BME280;56054;50.968;5.816;2022-12-04T08:47:08;100813.38;;;1.09;100.00
68994;BME280;56054;50.968;5.816;2022-12-04T08:50:15;100817.31;;;1.14;99.75
68994;BME280;56054;50.968;5.816;2022-12-04T08:53:22;100809.16;;;1.10;98.96
68994;BME280;56054;50.968;5.816;2022-12-04T08:56:33;100811.47;;;1.15;98.93
68994;BME280;56054;50.968;5.816;2022-12-04T08:59:40;100796.84;;;1.14;98.74
68994;BME280;56054;50.968;5.816;2022-12-04T09:02:48;100796.09;;;1.15;98.24
68994;BME280;56054;50.968;5.816;2022-12-04T09:05:58;100797.47;;;1.20;97.99
68994;BME280;56054;50.968;5.816;2022-12-04T09:09:06;100796.13;;;1.24;97.38
68994;BME280;56054;50.968;5.816;2022-12-04T09:12:17;100798.97;;;1.18;97.29
68994;BME280;56054;50.968;5.816;2022-12-04T09:15:27;100797.19;;;1.17;96.74
68994;BME280;56054;50.968;5.816;2022-12-04T09:18:37;100799.28;;;1.21;96.71
68994;BME280;56054;50.968;5.816;2022-12-04T09:21:45;100802.16;;;1.24;96.55
68994;BME280;56054;50.968;5.816;2022-12-04T09:24:52;100812.09;;;1.30;96.82
68994;BME280;56054;50.968;5.816;2022-12-04T09:28:03;100811.63;;;1.25;94.59
68994;BME280;56054;50.968;5.816;2022-12-04T09:31:20;100815.41;;;1.29;93.42
68994;BME280;56054;50.968;5.816;2022-12-04T09:34:27;100814.66;;;1.30;92.58
68994;BME280;56054;50.968;5.816;2022-12-04T09:37:37;100818.59;;;1.35;92.57
68994;BME280;56054;50.968;5.816;2022-12-04T09:41:20;100809.84;;;1.33;92.35
68994;BME280;56054;50.968;5.816;2022-12-04T09:45:20;100812.88;;;1.38;93.06
68994;BME280;56054;50.968;5.816;2022-12-04T09:48:38;100811.84;;;1.44;93.79
68994;BME280;56054;50.968;5.816;2022-12-04T09:51:46;100825.84;;;1.48;94.27
68994;BME280;56054;50.968;5.816;2022-12-04T09:55:13;100833.81;;;1.51;93.74
68994;BME280;56054;50.968;5.816;2022-12-04T09:59:10;100843.59;;;1.38;91.76
68994;BME280;56054;50.968;5.816;2022-12-04T10:02:49;100842.53;;;1.27;91.14
68994;BME280;56054;50.968;5.816;2022-12-04T10:09:53;100838.00;;;1.33;90.57
68994;BME280;56054;50.968;5.816;2022-12-04T10:27:17;100825.19;;;1.24;90.63
68994;BME280;56054;50.968;5.816;2022-12-04T10:30:33;100821.56;;;1.22;90.14
68994;BME280;56054;50.968;5.816;2022-12-04T10:37:05;100816.94;;;1.27;90.60
68994;BME280;56054;50.968;5.816;2022-12-04T10:40:32;100807.53;;;1.19;90.92
68994;BME280;56054;50.968;5.816;2022-12-04T10:43:44;100812.84;;;1.20;91.22
68994;BME280;56054;50.968;5.816;2022-12-04T10:46:55;100821.53;;;1.14;91.08
68994;BME280;56054;50.968;5.816;2022-12-04T10:50:13;100810.28;;;1.20;91.52
68994;BME280;56054;50.968;5.816;2022-12-04T10:53:33;100814.63;;;1.21;91.93
68994;BME280;56054;50.968;5.816;2022-12-04T10:56:59;100818.53;;;1.18;91.42
68994;BME280;56054;50.968;5.816;2022-12-04T11:00:33;100809.84;;;1.24;91.51
68994;BME280;56054;50.968;5.816;2022-12-04T11:03:43;100819.41;;;1.10;91.60
68994;BME280;56054;50.968;5.816;2022-12-04T11:07:08;100818.66;;;1.11;92.19
68994;BME280;56054;50.968;5.816;2022-12-04T11:10:40;100823.81;;;1.19;91.66
68994;BME280;56054;50.968;5.816;2022-12-04T11:13:47;100816.47;;;1.22;91.25
68994;BME280;56054;50.968;5.816;2022-12-04T11:17:05;100807.84;;;1.13;91.38
68994;BME280;56054;50.968;5.816;2022-12-04T11:20:23;100820.63;;;1.13;91.54
68994;BME280;56054;50.968;5.816;2022-12-04T11:23:40;100812.31;;;1.07;91.64
68994;BME280;56054;50.968;5.816;2022-12-04T11:26:49;100794.41;;;1.07;91.95
68994;BME280;56054;50.968;5.816;2022-12-04T11:36:40;100800.41;;;0.99;92.40
68994;BME280;56054;50.968;5.816;2022-12-04T11:39:48;100797.31;;;1.10;91.89
68994;BME280;56054;50.968;5.816;2022-12-04T11:43:02;100792.91;;;1.09;91.58
68994;BME280;56054;50.968;5.816;2022-12-04T11:46:20;100794.88;;;1.12;91.97
68994;BME280;56054;50.968;5.816;2022-12-04T11:49:29;100793.94;;;1.02;92.19
68994;BME280;56054;50.968;5.816;2022-12-04T11:53:00;100789.16;;;1.05;91.84
68994;BME280;56054;50.968;5.816;2022-12-04T12:03:26;100780.28;;;1.11;91.87
68994;BME280;56054;50.968;5.816;2022-12-04T12:06:47;100779.47;;;0.94;92.91
68994;BME280;56054;50.968;5.816;2022-12-04T12:10:10;100766.69;;;0.94;92.20
68994;BME280;56054;50.968;5.816;2022-12-04T12:13:35;100762.47;;;0.95;92.36
68994;BME280;56054;50.968;5.816;2022-12-04T12:17:09;100768.19;;;0.92;92.84
68994;BME280;56054;50.968;5.816;2022-12-04T12:20:58;100768.47;;;0.87;92.68
68994;BME280;56054;50.968;5.816;2022-12-04T12:34:45;100787.88;;;0.84;92.98
68994;BME280;56054;50.968;5.816;2022-12-04T12:38:25;100781.91;;;0.93;93.19
68994;BME280;56054;50.968;5.816;2022-12-04T12:41:42;100780.06;;;0.83;92.25
68994;BME280;56054;50.968;5.816;2022-12-04T12:48:00;100780.63;;;0.80;92.72
68994;BME280;56054;50.968;5.816;2022-12-04T12:51:40;100763.94;;;0.84;92.85
68994;BME280;56054;50.968;5.816;2022-12-04T12:55:03;100760.66;;;0.94;92.89
68994;BME280;56054;50.968;5.816;2022-12-04T12:58:47;100760.66;;;0.94;93.18
68994;BME280;56054;50.968;5.816;2022-12-04T13:02:03;100753.28;;;0.97;93.55
68994;BME280;56054;50.968;5.816;2022-12-04T13:05:16;100755.38;;;0.92;93.71
68994;BME280;56054;50.968;5.816;2022-12-04T13:08:28;100757.22;;;0.93;93.60
68994;BME280;56054;50.968;5.816;2022-12-04T13:11:38;100750.72;;;0.88;93.58
68994;BME280;56054;50.968;5.816;2022-12-04T13:14:48;100755.84;;;0.88;93.41
68994;BME280;56054;50.968;5.816;2022-12-04T13:17:55;100750.72;;;0.88;94.27
68994;BME280;56054;50.968;5.816;2022-12-04T13:21:04;100752.56;;;0.98;93.68
68994;BME280;56054;50.968;5.816;2022-12-04T13:38:22;100730.00;;;1.11;94.40
68994;BME280;56054;50.968;5.816;2022-12-04T13:41:35;100730.44;;;1.07;93.94
68994;BME280;56054;50.968;5.816;2022-12-04T13:45:22;100740.38;;;1.04;94.08
68994;BME280;56054;50.968;5.816;2022-12-04T13:48:27;100737.81;;;1.04;93.57
68994;BME280;56054;50.968;5.816;2022-12-04T13:51:39;100728.78;;;0.99;93.72
68994;BME280;56054;50.968;5.816;2022-12-04T13:55:03;100736.03;;;1.03;93.97
68994;BME280;56054;50.968;5.816;2022-12-04T14:01:28;100732.41;;;1.01;93.97
68994;BME280;56054;50.968;5.816;2022-12-04T14:04:45;100719.16;;;1.05;94.75
68994;BME280;56054;50.968;5.816;2022-12-04T14:08:21;100724.88;;;1.11;94.45
68994;BME280;56054;50.968;5.816;2022-12-04T14:11:46;100724.28;;;1.05;94.30
68994;BME280;56054;50.968;5.816;2022-12-04T14:15:07;100726.84;;;1.05;95.27
68994;BME280;56054;50.968;5.816;2022-12-04T14:18:28;100729.09;;;1.11;94.73
68994;BME280;56054;50.968;5.816;2022-12-04T14:22:42;100739.31;;;1.02;94.49
68994;BME280;56054;50.968;5.816;2022-12-04T14:26:28;100734.81;;;1.08;94.21
68994;BME280;56054;50.968;5.816;2022-12-04T14:30:03;100737.69;;;1.11;94.50
68994;BME280;56054;50.968;5.816;2022-12-04T14:33:17;100727.28;;;1.10;94.25
68994;BME280;56054;50.968;5.816;2022-12-04T14:36:53;100736.22;;;1.39;93.65
68994;BME280;56054;50.968;5.816;2022-12-04T14:40:02;100731.81;;;1.21;94.71
68994;BME280;56054;50.968;5.816;2022-12-04T14:43:26;100730.50;;;1.24;94.31
68994;BME280;56054;50.968;5.816;2022-12-04T14:46:58;100732.78;;;1.56;92.75
68994;BME280;56054;50.968;5.816;2022-12-04T15:00:48;100734.84;;;1.25;94.69
68994;BME280;56054;50.968;5.816;2022-12-04T15:03:57;100730.50;;;1.24;94.93
68994;BME280;56054;50.968;5.816;2022-12-04T15:07:07;100746.41;;;1.13;94.68
68994;BME280;56054;50.968;5.816;2022-12-04T15:10:23;100749.88;;;1.14;94.54
68994;BME280;56054;50.968;5.816;2022-12-04T15:13:35;100750.78;;;1.14;94.40
68994;BME280;56054;50.968;5.816;2022-12-04T15:16:42;100753.81;;;1.19;93.74
68994;BME280;56054;50.968;5.816;2022-12-04T15:19:49;100750.63;;;1.21;94.17
68994;BME280;56054;50.968;5.816;2022-12-04T15:23:05;100757.72;;;1.15;94.58
68994;BME280;56054;50.968;5.816;2022-12-04T15:26:16;100757.41;;;1.21;94.02
68994;BME280;56054;50.968;5.816;2022-12-04T15:29:27;100757.38;;;1.12;94.08
68994;BME280;56054;50.968;5.816;2022-12-04T15:32:35;100768.56;;;1.21;94.33
68994;BME280;56054;50.968;5.816;2022-12-04T15:35:48;100767.66;;;1.21;94.35
68994;BME280;56054;50.968;5.816;2022-12-04T15:39:04;100762.38;;;1.19;93.66
68994;BME280;56054;50.968;5.816;2022-12-04T15:45:31;100767.34;;;1.26;93.82
68994;BME280;56054;50.968;5.816;2022-12-04T15:48:38;100761.63;;;1.29;93.27
68994;BME280;56054;50.968;5.816;2022-12-04T15:52:16;100770.09;;;1.28;94.22
68994;BME280;56054;50.968;5.816;2022-12-04T15:55:25;100762.25;;;1.26;93.62
68994;BME280;56054;50.968;5.816;2022-12-04T15:58:38;100767.69;;;1.30;94.00
68994;BME280;56054;50.968;5.816;2022-12-04T16:02:18;100766.16;;;1.32;93.49
68994;BME280;56054;50.968;5.816;2022-12-04T16:09:26;100757.75;;;1.33;93.92
68994;BME280;56054;50.968;5.816;2022-12-04T16:12:33;100758.66;;;1.42;93.73
68994;BME280;56054;50.968;5.816;2022-12-04T16:15:54;100769.66;;;1.41;93.76
68994;BME280;56054;50.968;5.816;2022-12-04T16:19:22;100764.53;;;1.41;93.20
68994;BME280;56054;50.968;5.816;2022-12-04T16:22:32;100760.47;;;1.43;92.98
68994;BME280;56054;50.968;5.816;2022-12-04T16:25:39;100764.53;;;1.41;92.75
68994;BME280;56054;50.968;5.816;2022-12-04T16:28:45;100759.09;;;1.38;92.94
68994;BME280;56054;50.968;5.816;2022-12-04T16:32:37;100755.94;;;1.40;93.07
68994;BME280;56054;50.968;5.816;2022-12-04T16:40:43;100760.31;;;1.33;92.61
68994;BME280;56054;50.968;5.816;2022-12-04T16:48:21;100780.66;;;2.01;90.45
68994;BME280;56054;50.968;5.816;2022-12-04T16:51:42;100764.41;;;1.74;91.62
68994;BME280;56054;50.968;5.816;2022-12-04T16:54:57;100772.69;;;1.63;91.78
68994;BME280;56054;50.968;5.816;2022-12-04T16:58:05;100775.53;;;1.57;91.65
68994;BME280;56054;50.968;5.816;2022-12-04T17:01:39;100783.66;;;1.53;91.43
68994;BME280;56054;50.968;5.816;2022-12-04T17:04:46;100785.94;;;1.50;92.47
68994;BME280;56054;50.968;5.816;2022-12-04T17:07:54;100769.97;;;1.53;91.90
68994;BME280;56054;50.968;5.816;2022-12-04T17:11:01;100777.03;;;1.55;92.05
68994;BME280;56054;50.968;5.816;2022-12-04T17:14:09;100790.47;;;1.61;92.14
68994;BME280;56054;50.968;5.816;2022-12-04T17:17:18;100789.13;;;1.56;92.41
68994;BME280;56054;50.968;5.816;2022-12-04T17:20:27;100793.31;;;1.56;92.22
68994;BME280;56054;50.968;5.816;2022-12-04T17:23:35;100798.44;;;1.56;92.77
68994;BME280;56054;50.968;5.816;2022-12-04T17:26:41;100794.97;;;1.55;92.58
68994;BME280;56054;50.968;5.816;2022-12-04T17:29:52;100804.78;;;1.59;92.39
68994;BME280;56054;50.968;5.816;2022-12-04T17:33:03;100801.59;;;1.53;92.93
68994;BME280;56054;50.968;5.816;2022-12-04T17:36:14;100790.16;;;1.58;92.34
68994;BME280;56054;50.968;5.816;2022-12-04T17:39:25;100795.00;;;1.64;92.75
68994;BME280;56054;50.968;5.816;2022-12-04T17:42:58;100783.25;;;1.66;92.80
68994;BME280;56054;50.968;5.816;2022-12-04T17:46:16;100786.25;;;1.62;93.10
68994;BME280;56054;50.968;5.816;2022-12-04T17:49:23;100784.16;;;1.66;92.98
68994;BME280;56054;50.968;5.816;2022-12-04T17:52:31;100777.19;;;1.65;93.04
68994;BME280;56054;50.968;5.816;2022-12-04T17:55:42;100777.06;;;1.73;92.89
68994;BME280;56054;50.968;5.816;2022-12-04T17:58:50;100778.25;;;1.67;92.63
68994;BME280;56054;50.968;5.816;2022-12-04T18:02:03;100779.16;;;1.68;93.62
68994;BME280;56054;50.968;5.816;2022-12-04T18:05:09;100785.50;;;1.71;93.26
68994;BME280;56054;50.968;5.816;2022-12-04T18:08:16;100787.03;;;1.78;93.87
68994;BME280;56054;50.968;5.816;2022-12-04T18:11:30;100782.16;;;1.73;93.49
68994;BME280;56054;50.968;5.816;2022-12-04T18:14:38;100784.16;;;1.66;93.87
68994;BME280;56054;50.968;5.816;2022-12-04T18:17:44;100774.19;;;1.69;94.81
68994;BME280;56054;50.968;5.816;2022-12-04T18:21:03;100770.13;;;1.71;94.27
68994;BME280;56054;50.968;5.816;2022-12-04T18:24:11;100770.72;;;1.69;94.70
68994;BME280;56054;50.968;5.816;2022-12-04T18:27:20;100771.47;;;1.68;94.91
68994;BME280;56054;50.968;5.816;2022-12-04T18:30:27;100767.28;;;1.68;94.81
68994;BME280;56054;50.968;5.816;2022-12-04T18:33:38;100777.97;;;1.64;95.19
68994;BME280;56054;50.968;5.816;2022-12-04T18:36:48;100774.03;;;1.68;94.66
68994;BME280;56054;50.968;5.816;2022-12-04T18:40:05;100775.25;;;1.71;95.46
68994;BME280;56054;50.968;5.816;2022-12-04T18:43:12;100770.88;;;1.79;95.45
68994;BME280;56054;50.968;5.816;2022-12-04T18:46:28;100766.66;;;1.80;95.05
68994;BME280;56054;50.968;5.816;2022-12-04T18:49:37;100781.28;;;1.72;94.95
68994;BME280;56054;50.968;5.816;2022-12-04T18:52:47;100766.38;;;1.77;95.48
68994;BME280;56054;50.968;5.816;2022-12-04T18:56:03;100778.56;;;1.79;95.27
68994;BME280;56054;50.968;5.816;2022-12-04T18:59:18;100781.59;;;1.84;95.62
68994;BME280;56054;50.968;5.816;2022-12-04T19:02:25;100773.59;;;1.81;95.60
68994;BME280;56054;50.968;5.816;2022-12-04T19:05:49;100777.38;;;1.76;96.20
68994;BME280;56054;50.968;5.816;2022-12-04T19:08:58;100778.72;;;1.72;96.34